createdAt,value
2022-11-16T00:00:35.275Z,98749.38
2022-11-16T00:03:04.384Z,98746.09
2022-11-16T00:05:33.115Z,98746.09
2022-11-16T00:08:01.473Z,98745.41
2022-11-16T00:10:29.808Z,98744.66
2022-11-16T00:12:59.633Z,98743.72
2022-11-16T00:15:28.128Z,98747.34
2022-11-16T00:17:56.489Z,98747.47
2022-11-16T00:20:24.897Z,98746.53
2022-11-16T00:22:53.252Z,98748.22
2022-11-16T00:25:22.441Z,98748.22
2022-11-16T00:27:51.088Z,98748.31
2022-11-16T00:30:21.249Z,98750.81
2022-11-16T00:32:49.583Z,98752.56
2022-11-16T00:35:18.112Z,98752.66
2022-11-16T00:37:46.627Z,98748.44
2022-11-16T00:40:15.968Z,98756.19
2022-11-16T00:42:44.765Z,98741.66
2022-11-16T00:45:13.242Z,98747.72
2022-11-16T00:47:42.903Z,98747.91
2022-11-16T00:50:11.488Z,98744.63
2022-11-16T00:52:39.997Z,98747.13
2022-11-16T00:55:09.598Z,98756.78
2022-11-16T00:57:38.181Z,98755.94
2022-11-16T01:00:07.967Z,98749.91
2022-11-16T01:02:36.596Z,98747.56
2022-11-16T01:05:08.093Z,98741.63
2022-11-16T01:07:37.575Z,98743.56
2022-11-16T01:10:06.794Z,98737.59
2022-11-16T01:12:35.297Z,98734.38
2022-11-16T01:15:03.949Z,98729.56
2022-11-16T01:17:32.306Z,98725.41
2022-11-16T01:20:00.718Z,98728.28
2022-11-16T01:22:30.444Z,98728.16
2022-11-16T01:24:59.191Z,98717.00
2022-11-16T01:27:27.733Z,98718.00
2022-11-16T01:29:57.305Z,98716.38
2022-11-16T01:32:26.163Z,98719.69
2022-11-16T01:34:55.220Z,98721.66
2022-11-16T01:37:31.962Z,98720.81
2022-11-16T01:40:00.529Z,98708.78
2022-11-16T01:42:35.011Z,98714.09
2022-11-16T01:45:23.256Z,98702.13
2022-11-16T01:48:01.767Z,98697.13
2022-11-16T01:50:35.095Z,98695.44
2022-11-16T01:53:08.551Z,98703.22
2022-11-16T01:55:52.319Z,98702.31
2022-11-16T01:58:47.600Z,98702.31
2022-11-16T02:01:22.852Z,98696.16
2022-11-16T02:03:55.741Z,98690.28
2022-11-16T02:06:58.470Z,98696.25
2022-11-16T02:10:01.948Z,98692.66
2022-11-16T02:12:53.661Z,98689.34
2022-11-16T02:15:32.886Z,98687.59
2022-11-16T02:18:32.921Z,98678.03
2022-11-16T02:21:34.745Z,98673.81
2022-11-16T02:24:36.773Z,98678.06
2022-11-16T02:27:59.168Z,98680.72
2022-11-16T02:30:30.865Z,98670.50
2022-11-16T02:33:05.986Z,98673.03
2022-11-16T02:35:43.248Z,98675.72
2022-11-16T02:38:17.808Z,98672.44
2022-11-16T02:41:07.443Z,98674.09
2022-11-16T02:43:47.758Z,98669.94
2022-11-16T02:46:29.789Z,98663.09
2022-11-16T02:49:03.257Z,98667.50
2022-11-16T02:51:33.458Z,98661.50
2022-11-16T02:54:06.760Z,98664.03
2022-11-16T02:56:45.056Z,98666.72
2022-11-16T02:59:17.535Z,98659.81
2022-11-16T03:01:55.906Z,98657.34
2022-11-16T03:04:31.758Z,98648.75
2022-11-16T03:07:05.664Z,98653.78
2022-11-16T03:09:40.198Z,98648.72
2022-11-16T03:12:15.188Z,98648.50
2022-11-16T03:14:50.260Z,98655.38
2022-11-16T03:17:26.570Z,98655.47
2022-11-16T03:20:02.635Z,98654.66
2022-11-16T03:22:40.799Z,98654.75
2022-11-16T03:25:26.372Z,98660.66
2022-11-16T03:28:05.640Z,98657.66
2022-11-16T03:30:44.448Z,98658.47
2022-11-16T03:33:20.913Z,98659.91
2022-11-16T03:36:02.802Z,98655.91
2022-11-16T03:39:09.314Z,98650.81
2022-11-16T03:41:42.017Z,98650.09
2022-11-16T03:44:13.557Z,98646.91
2022-11-16T03:46:42.892Z,98649.56
2022-11-16T03:49:14.308Z,98633.34
2022-11-16T03:51:43.645Z,98635.16
2022-11-16T03:54:11.944Z,98641.91
2022-11-16T03:56:41.341Z,98642.75
2022-11-16T03:59:10.296Z,98640.22
2022-11-16T04:01:44.359Z,98636.84
2022-11-16T04:04:30.472Z,98643.75
2022-11-16T04:07:16.956Z,98650.59
2022-11-16T04:10:03.147Z,98658.19
2022-11-16T04:12:50.828Z,98658.38
2022-11-16T04:15:37.494Z,98662.34
2022-11-16T04:18:24.793Z,98657.50
2022-11-16T04:21:11.848Z,98667.13
2022-11-16T04:23:57.778Z,98660.19
2022-11-16T04:26:57.044Z,98659.91
2022-11-16T04:29:32.013Z,98660.41
2022-11-16T04:32:21.913Z,98651.34
2022-11-16T04:35:07.938Z,98654.56
2022-11-16T04:37:52.572Z,98654.63
2022-11-16T04:40:31.220Z,98662.94
2022-11-16T04:43:03.347Z,98653.56
2022-11-16T04:45:53.876Z,98649.34
2022-11-16T04:48:26.229Z,98649.34
2022-11-16T04:50:56.156Z,98650.25
2022-11-16T04:53:27.995Z,98659.81
2022-11-16T04:56:22.104Z,98660.53
2022-11-16T04:58:50.550Z,98668.06
2022-11-16T05:01:39.577Z,98665.50
2022-11-16T05:04:08.878Z,98656.81
2022-11-16T05:06:37.253Z,98667.03
2022-11-16T05:09:07.414Z,98673.75
2022-11-16T05:11:36.096Z,98683.13
2022-11-16T05:14:07.039Z,98683.09
2022-11-16T05:16:35.540Z,98680.22
2022-11-16T05:19:24.716Z,98671.41
2022-11-16T05:21:53.230Z,98678.19
2022-11-16T05:24:46.845Z,98677.13
2022-11-16T05:27:18.129Z,98672.50
2022-11-16T05:29:49.516Z,98673.22
2022-11-16T05:32:23.790Z,98677.34
2022-11-16T05:34:53.155Z,98669.56
2022-11-16T05:37:26.129Z,98673.88
2022-11-16T05:39:59.217Z,98672.84
2022-11-16T05:42:40.373Z,98666.09
2022-11-16T05:45:20.711Z,98677.19
2022-11-16T05:47:57.039Z,98678.03
2022-11-16T05:50:25.759Z,98670.19
2022-11-16T05:53:06.199Z,98680.66
2022-11-16T05:55:38.246Z,98674.53
2022-11-16T05:58:07.567Z,98689.34
2022-11-16T06:00:37.340Z,98688.41
2022-11-16T06:03:06.318Z,98682.41
2022-11-16T06:05:40.181Z,98684.06
2022-11-16T06:08:10.437Z,98684.06
2022-11-16T06:10:43.404Z,98686.66
2022-11-16T06:13:23.448Z,98690.94
2022-11-16T06:15:56.538Z,98692.66
2022-11-16T06:18:25.363Z,98694.41
2022-11-16T06:21:04.781Z,98695.28
2022-11-16T06:23:37.096Z,98697.94
2022-11-16T06:26:11.480Z,98696.06
2022-11-16T06:28:50.659Z,98702.94
2022-11-16T06:31:20.159Z,98707.28
2022-11-16T06:33:51.393Z,98709.16
2022-11-16T06:36:24.885Z,98704.91
2022-11-16T06:38:59.499Z,98712.53
2022-11-16T06:41:43.859Z,98712.53
2022-11-16T06:44:14.492Z,98711.69
2022-11-16T06:46:53.869Z,98709.03
2022-11-16T06:49:22.304Z,98707.25
2022-11-16T06:51:52.707Z,98704.81
2022-11-16T06:54:21.437Z,98720.38
2022-11-16T06:56:51.247Z,98717.72
2022-11-16T06:59:19.584Z,98711.69
2022-11-16T07:01:48.205Z,98712.47
2022-11-16T07:04:19.493Z,98721.00
2022-11-16T07:07:04.685Z,98720.25
2022-11-16T07:09:51.342Z,98726.28
2022-11-16T07:12:44.426Z,98716.59
2022-11-16T07:15:15.993Z,98727.56
2022-11-16T07:17:50.312Z,98736.88
2022-11-16T07:20:22.510Z,98732.53
2022-11-16T07:22:54.596Z,98739.44
2022-11-16T07:25:43.935Z,98742.69
2022-11-16T07:28:29.715Z,98736.56
2022-11-16T07:31:11.703Z,98751.41
2022-11-16T07:33:40.941Z,98752.13
2022-11-16T07:36:27.873Z,98752.91
2022-11-16T07:38:57.721Z,98761.66
2022-11-16T07:41:26.480Z,98755.63
2022-11-16T07:44:49.541Z,98754.06
2022-11-16T07:47:28.791Z,98765.31
2022-11-16T07:49:57.421Z,98759.88
2022-11-16T07:52:44.055Z,98759.16
2022-11-16T07:55:24.823Z,98761.78
2022-11-16T07:57:54.045Z,98758.28
2022-11-16T08:00:24.838Z,98759.88
2022-11-16T08:03:00.984Z,98764.03
2022-11-16T08:05:29.761Z,98765.66
2022-11-16T08:08:03.763Z,98770.78
2022-11-16T08:10:40.767Z,98773.22
2022-11-16T08:13:26.449Z,98782.22
2022-11-16T08:16:10.448Z,98778.09
2022-11-16T08:18:41.725Z,98781.47
2022-11-16T08:21:13.942Z,98778.72
2022-11-16T08:23:44.865Z,98775.94
2022-11-16T08:26:18.526Z,98781.38
2022-11-16T08:28:57.463Z,98781.38
2022-11-16T08:31:49.644Z,98782.97
2022-11-16T08:34:25.222Z,98786.69
2022-11-16T08:37:01.817Z,98787.38
2022-11-16T08:39:39.998Z,98799.53
2022-11-16T08:42:09.624Z,98804.88
2022-11-16T08:44:41.560Z,98807.44
2022-11-16T08:47:16.752Z,98810.06
2022-11-16T08:49:57.252Z,98815.94
2022-11-16T08:52:28.792Z,98817.03
2022-11-16T08:55:02.099Z,98816.84
2022-11-16T08:57:31.914Z,98822.16
2022-11-16T09:00:09.973Z,98822.41
2022-11-16T09:02:40.873Z,98834.34
2022-11-16T09:05:15.165Z,98826.66
2022-11-16T09:07:45.897Z,98828.78
2022-11-16T09:10:19.128Z,98830.44
2022-11-16T09:12:53.062Z,98834.22
2022-11-16T09:15:25.251Z,98834.81
2022-11-16T09:18:05.018Z,98833.47
2022-11-16T09:20:44.913Z,98835.03
2022-11-16T09:23:25.537Z,98839.97
2022-11-16T09:26:02.890Z,98836.94
2022-11-16T09:28:33.296Z,98835.03
2022-11-16T09:31:06.099Z,98851.09
2022-11-16T09:33:36.578Z,98842.38
2022-11-16T09:36:07.956Z,98843.63
2022-11-16T09:39:03.169Z,98846.91
2022-11-16T09:41:47.359Z,98847.75
2022-11-16T09:44:37.785Z,98863.09
2022-11-16T09:47:11.851Z,98865.53
2022-11-16T09:49:48.597Z,98867.09
2022-11-16T09:52:29.397Z,98866.59
2022-11-16T09:55:01.566Z,98873.66
2022-11-16T09:57:35.832Z,98870.50
2022-11-16T10:00:15.494Z,98870.09
2022-11-16T10:02:49.213Z,98863.50
2022-11-16T10:05:24.242Z,98857.94
2022-11-16T10:08:00.443Z,98859.34
2022-11-16T10:10:36.652Z,98861.28
2022-11-16T10:13:17.395Z,98854.28
2022-11-16T10:16:03.715Z,98855.44
2022-11-16T10:18:48.445Z,98857.72
2022-11-16T10:21:34.902Z,98856.75
2022-11-16T10:24:32.104Z,98861.88
2022-11-16T10:27:41.600Z,98864.53
2022-11-16T10:30:14.053Z,98861.47
2022-11-16T10:32:49.395Z,98863.78
2022-11-16T10:35:24.127Z,98859.41
2022-11-16T10:37:54.122Z,98872.81
2022-11-16T10:40:26.306Z,98864.19
2022-11-16T10:43:03.987Z,98861.59
2022-11-16T10:45:41.321Z,98862.69
2022-11-16T10:48:23.193Z,98865.72
2022-11-16T10:50:53.847Z,98855.31
2022-11-16T10:53:33.636Z,98846.66
2022-11-16T10:56:18.631Z,98848.66
2022-11-16T10:58:59.403Z,98850.75
2022-11-16T11:01:36.949Z,98847.88
2022-11-16T11:04:22.045Z,98855.16
2022-11-16T11:06:53.318Z,98840.38
2022-11-16T11:09:30.039Z,98840.28
2022-11-16T11:12:32.607Z,98839.75
2022-11-16T11:15:06.838Z,98841.72
2022-11-16T11:17:37.177Z,98846.69
2022-11-16T11:20:08.980Z,98842.69
2022-11-16T11:22:45.874Z,98844.50
2022-11-16T11:25:24.451Z,98837.88
2022-11-16T11:28:05.364Z,98835.44
2022-11-16T11:30:34.510Z,98832.66
2022-11-16T11:33:03.375Z,98829.38
2022-11-16T11:35:34.023Z,98834.94
2022-11-16T11:38:07.968Z,98832.47
2022-11-16T11:40:38.334Z,98833.13
2022-11-16T11:43:12.689Z,98826.25
2022-11-16T11:45:50.966Z,98822.72
2022-11-16T11:48:37.838Z,98819.16
2022-11-16T11:51:16.605Z,98819.31
2022-11-16T11:53:53.439Z,98820.63
2022-11-16T11:56:23.822Z,98823.97
2022-11-16T11:58:52.832Z,98815.22
2022-11-16T12:01:52.593Z,98817.06
2022-11-16T12:05:15.588Z,98808.47
2022-11-16T12:08:14.749Z,98805.47
2022-11-16T12:10:51.106Z,98804.47
2022-11-16T12:13:52.216Z,98800.56
2022-11-16T12:16:28.287Z,98803.63
2022-11-16T12:19:13.266Z,98801.31
2022-11-16T12:21:57.130Z,98795.88
2022-11-16T12:24:39.539Z,98799.16
2022-11-16T12:27:20.070Z,98802.72
2022-11-16T12:30:03.058Z,98797.91
2022-11-16T12:33:10.066Z,98798.66
2022-11-16T12:35:49.817Z,98786.44
2022-11-16T12:38:43.390Z,98791.38
2022-11-16T12:42:03.020Z,98786.31
2022-11-16T12:44:51.412Z,98781.81
2022-11-16T12:47:30.411Z,98782.78
2022-11-16T12:50:21.793Z,98789.81
2022-11-16T12:53:19.080Z,98783.53
2022-11-16T12:55:56.296Z,98780.50
2022-11-16T12:58:39.841Z,98782.00
2022-11-16T13:01:19.078Z,98781.34
2022-11-16T13:03:52.718Z,98774.81
2022-11-16T13:06:28.234Z,98767.09
2022-11-16T13:09:05.289Z,98752.44
2022-11-16T13:11:38.638Z,98753.34
2022-11-16T13:14:13.013Z,98752.25
2022-11-16T13:16:43.024Z,98754.22
2022-11-16T13:19:15.575Z,98744.81
2022-11-16T13:21:54.798Z,98741.38
2022-11-16T13:24:42.719Z,98739.59
2022-11-16T13:27:27.823Z,98739.78
2022-11-16T13:30:02.810Z,98739.00
2022-11-16T13:32:51.353Z,98733.25
2022-11-16T13:35:20.994Z,98721.19
2022-11-16T13:37:50.873Z,98727.94
2022-11-16T13:40:29.620Z,98717.31
2022-11-16T13:43:18.002Z,98718.38
2022-11-16T13:45:56.971Z,98714.88
2022-11-16T13:48:33.403Z,98709.44
2022-11-16T13:51:05.788Z,98706.78
2022-11-16T13:54:37.826Z,98698.66
2022-11-16T13:56:29.330Z,98701.84
2022-11-16T13:58:59.764Z,98699.03
2022-11-16T14:01:56.809Z,98701.63
2022-11-16T14:04:44.094Z,98708.47
2022-11-16T14:07:43.169Z,98718.38
2022-11-16T14:10:13.091Z,98707.34
2022-11-16T14:12:59.759Z,98707.31
2022-11-16T14:15:34.727Z,98708.47
2022-11-16T14:18:32.832Z,98698.19
2022-11-16T14:21:13.509Z,98696.94
2022-11-16T14:24:19.304Z,98696.03
2022-11-16T14:27:00.707Z,98687.97
2022-11-16T14:29:53.077Z,98678.66
2022-11-16T14:32:25.426Z,98674.56
2022-11-16T14:34:56.687Z,98673.91
2022-11-16T14:37:36.173Z,98673.06
2022-11-16T14:40:09.130Z,98684.16
2022-11-16T14:43:14.972Z,98687.03
2022-11-16T14:45:38.486Z,98690.38
2022-11-16T14:48:16.750Z,98685.09
2022-11-16T14:50:49.032Z,98687.78
2022-11-16T14:53:21.406Z,98673.94
2022-11-16T14:55:49.819Z,98684.78
2022-11-16T14:58:21.100Z,98686.50
2022-11-16T15:00:58.752Z,98683.38
2022-11-16T15:03:34.770Z,98687.38
2022-11-16T15:06:05.760Z,98678.09
2022-11-16T15:08:40.025Z,98674.59
2022-11-16T15:11:12.896Z,98666.13
2022-11-16T15:13:41.352Z,98669.56
2022-11-16T15:16:11.995Z,98665.41
2022-11-16T15:18:40.342Z,98659.50
2022-11-16T15:21:23.222Z,98655.41
2022-11-16T15:24:23.352Z,98653.69
2022-11-16T15:26:41.741Z,98664.88
2022-11-16T15:29:17.517Z,98671.50
2022-11-16T15:31:46.164Z,98669.91
2022-11-16T15:34:16.592Z,98666.25
2022-11-16T15:36:45.389Z,98665.81
2022-11-16T15:39:18.896Z,98661.25
2022-11-16T15:41:47.865Z,98656.75
2022-11-16T15:44:19.178Z,98656.75
2022-11-16T15:46:50.623Z,98648.44
2022-11-16T15:49:30.179Z,98645.81
2022-11-16T15:51:59.920Z,98646.84
2022-11-16T15:54:54.577Z,98654.00
2022-11-16T15:57:25.192Z,98649.81
2022-11-16T15:59:57.081Z,98660.31
2022-11-16T16:02:28.526Z,98653.69
2022-11-16T16:04:56.989Z,98634.84
2022-11-16T16:07:38.834Z,98632.94
2022-11-16T16:10:25.324Z,98630.47
2022-11-16T16:12:55.736Z,98629.00
2022-11-16T16:15:27.264Z,98632.50
2022-11-16T16:17:56.105Z,98629.19
2022-11-16T16:20:27.313Z,98630.22
2022-11-16T16:23:07.091Z,98630.22
2022-11-16T16:25:38.182Z,98632.00
2022-11-16T16:28:07.136Z,98621.09
2022-11-16T16:30:35.880Z,98624.00
2022-11-16T16:33:04.558Z,98615.16
2022-11-16T16:35:32.916Z,98612.78
2022-11-16T16:38:02.448Z,98620.69
2022-11-16T16:40:31.190Z,98624.88
2022-11-16T16:43:00.987Z,98620.50
2022-11-16T16:45:37.328Z,98627.47
2022-11-16T16:48:06.312Z,98632.56
2022-11-16T16:50:34.707Z,98619.66
2022-11-16T16:53:03.081Z,98623.06
2022-11-16T16:55:36.789Z,98618.75
2022-11-16T16:58:07.390Z,98609.28
2022-11-16T17:00:35.784Z,98608.38
2022-11-16T17:03:04.299Z,98609.28
2022-11-16T17:05:34.085Z,98608.25
2022-11-16T17:08:03.008Z,98601.50
2022-11-16T17:10:31.692Z,98599.00
2022-11-16T17:13:03.033Z,98596.19
2022-11-16T17:15:32.864Z,98592.91
2022-11-16T17:18:01.204Z,98586.84
2022-11-16T17:20:29.645Z,98591.91
2022-11-16T17:22:58.147Z,98584.16
2022-11-16T17:25:26.509Z,98580.84
2022-11-16T17:27:54.856Z,98580.06
2022-11-16T17:30:23.458Z,98571.56
2022-11-16T17:32:53.220Z,98570.75
2022-11-16T17:35:22.162Z,98573.31
2022-11-16T17:37:50.755Z,98572.50
2022-11-16T17:40:19.548Z,98566.53
2022-11-16T17:42:47.912Z,98565.75
2022-11-16T17:45:16.403Z,98569.19
2022-11-16T17:47:44.815Z,98563.88
2022-11-16T17:50:15.824Z,98569.75
2022-11-16T17:52:44.300Z,98564.72
2022-11-16T17:55:12.735Z,98562.97
2022-11-16T17:57:41.126Z,98554.19
2022-11-16T18:00:14.206Z,98556.78
2022-11-16T18:02:42.674Z,98559.41
2022-11-16T18:05:11.269Z,98564.50
2022-11-16T18:07:41.256Z,98561.97
2022-11-16T18:10:14.939Z,98568.13
2022-11-16T18:12:46.297Z,98566.63
2022-11-16T18:15:28.063Z,98557.97
2022-11-16T18:17:57.920Z,98565.97
2022-11-16T18:20:27.768Z,98553.84
2022-11-16T18:22:57.971Z,98546.13
2022-11-16T18:25:26.378Z,98554.69
2022-11-16T18:27:55.765Z,98534.38
2022-11-16T18:30:25.428Z,98537.88
2022-11-16T18:32:54.021Z,98541.28
2022-11-16T18:35:22.777Z,98536.84
2022-11-16T18:37:51.273Z,98534.38
2022-11-16T18:40:21.066Z,98525.84
2022-11-16T18:42:49.524Z,98525.59
2022-11-16T18:45:18.261Z,98524.00
2022-11-16T18:47:46.676Z,98515.34
2022-11-16T18:50:20.245Z,98514.38
2022-11-16T18:52:52.524Z,98518.63
2022-11-16T18:55:22.316Z,98523.00
2022-11-16T18:57:50.696Z,98516.78
2022-11-16T19:00:21.662Z,98517.75
2022-11-16T19:02:50.007Z,98509.97
2022-11-16T19:05:18.602Z,98510.75
2022-11-16T19:07:46.922Z,98502.16
2022-11-16T19:10:15.668Z,98497.88
2022-11-16T19:12:45.421Z,98498.63
2022-11-16T19:15:13.867Z,98493.44
2022-11-16T19:17:59.671Z,98496.03
2022-11-16T19:20:30.532Z,98495.81
2022-11-16T19:22:59.270Z,98495.59
2022-11-16T19:25:27.980Z,98492.38
2022-11-16T19:27:57.691Z,98489.84
2022-11-16T19:30:26.065Z,98489.97
2022-11-16T19:32:58.017Z,98492.78
2022-11-16T19:35:26.505Z,98489.28
2022-11-16T19:37:55.021Z,98495.31
2022-11-16T19:40:25.198Z,98497.88
2022-11-16T19:42:54.682Z,98499.44
2022-11-16T19:45:24.836Z,98490.00
2022-11-16T19:47:53.367Z,98491.69
2022-11-16T19:50:23.556Z,98489.28
2022-11-16T19:52:51.887Z,98485.06
2022-11-16T19:55:20.326Z,98492.78
2022-11-16T19:57:48.768Z,98487.94
2022-11-16T20:00:18.643Z,98499.91
2022-11-16T20:02:48.360Z,98491.38
2022-11-16T20:05:16.797Z,98492.72
2022-11-16T20:07:45.200Z,98494.72
2022-11-16T20:10:13.603Z,98494.72
2022-11-16T20:12:43.445Z,98494.72
2022-11-16T20:15:12.118Z,98497.34
2022-11-16T20:17:40.453Z,98489.53
2022-11-16T20:20:11.668Z,98494.59
2022-11-16T20:22:40.269Z,98480.22
2022-11-16T20:25:09.975Z,98484.34
2022-11-16T20:27:38.840Z,98469.88
2022-11-16T20:30:09.867Z,98472.50
2022-11-16T20:32:38.674Z,98461.44
2022-11-16T20:35:07.430Z,98460.34
2022-11-16T20:37:37.261Z,98454.09
2022-11-16T20:40:07.355Z,98462.13
2022-11-16T20:42:35.717Z,98448.50
2022-11-16T20:45:06.808Z,98444.22
2022-11-16T20:47:35.284Z,98457.19
2022-11-16T20:50:04.273Z,98450.44
2022-11-16T20:52:33.593Z,98447.84
2022-11-16T20:55:03.410Z,98443.66
2022-11-16T20:57:31.900Z,98447.16
2022-11-16T21:00:00.815Z,98439.59
2022-11-16T21:02:29.287Z,98430.34
2022-11-16T21:05:00.373Z,98430.34
2022-11-16T21:07:30.839Z,98432.13
2022-11-16T21:10:16.897Z,98434.56
2022-11-16T21:13:00.773Z,98428.81
2022-11-16T21:15:29.247Z,98421.88
2022-11-16T21:17:57.790Z,98423.91
2022-11-16T21:20:27.843Z,98424.66
2022-11-16T21:22:56.992Z,98416.09
2022-11-16T21:25:25.455Z,98411.03
2022-11-16T21:27:57.069Z,98397.50
2022-11-16T21:30:25.526Z,98412.81
2022-11-16T21:32:54.004Z,98402.56
2022-11-16T21:35:23.522Z,98404.34
2022-11-16T21:37:51.976Z,98398.50
2022-11-16T21:40:20.394Z,98398.56
2022-11-16T21:42:50.052Z,98396.88
2022-11-16T21:45:20.033Z,98402.91
2022-11-16T21:47:48.475Z,98407.13
2022-11-16T21:50:31.517Z,98407.06
2022-11-16T21:53:00.779Z,98401.84
2022-11-16T21:55:29.164Z,98398.63
2022-11-16T21:57:58.180Z,98397.03
2022-11-16T22:00:28.703Z,98392.94
2022-11-16T22:02:57.707Z,98386.06
2022-11-16T22:05:45.300Z,98391.94
2022-11-16T22:08:13.757Z,98377.34
2022-11-16T22:10:42.206Z,98383.34
2022-11-16T22:13:10.694Z,98379.75
2022-11-16T22:15:40.469Z,98382.13
2022-11-16T22:18:08.862Z,98375.34
2022-11-16T22:20:37.326Z,98378.97
2022-11-16T22:23:05.762Z,98372.44
2022-11-16T22:25:34.310Z,98370.69
2022-11-16T22:31:01.793Z,98361.38
2022-11-16T22:33:30.767Z,98352.75
2022-11-16T22:35:59.245Z,98349.41
2022-11-16T22:38:28.132Z,98344.97
2022-11-16T22:40:58.498Z,98341.69
2022-11-16T22:43:31.644Z,98345.91
2022-11-16T22:46:03.214Z,98341.47
2022-11-16T22:48:32.523Z,98335.03
2022-11-16T22:51:06.819Z,98332.44
2022-11-16T22:53:35.876Z,98326.38
2022-11-16T22:56:07.142Z,98325.59
2022-11-16T22:58:35.999Z,98322.88
2022-11-16T23:01:07.408Z,98322.03
2022-11-16T23:03:36.501Z,98321.00
2022-11-16T23:06:06.475Z,98316.69
2022-11-16T23:08:36.279Z,98316.34
2022-11-16T23:11:24.589Z,98313.88
2022-11-16T23:14:12.065Z,98311.16
2022-11-16T23:16:42.732Z,98313.00
2022-11-16T23:19:26.884Z,98310.50
2022-11-16T23:22:12.927Z,98301.81
2022-11-16T23:24:58.864Z,98293.28
2022-11-16T23:27:33.206Z,98293.38
2022-11-16T23:30:07.959Z,98290.72
2022-11-16T23:32:42.380Z,98293.28
2022-11-16T23:35:11.857Z,98282.03
2022-11-16T23:37:52.699Z,98277.00
2022-11-16T23:40:21.553Z,98274.22
2022-11-16T23:43:07.649Z,98264.66
2022-11-16T23:45:36.077Z,98256.16
2022-11-16T23:48:07.621Z,98252.00
2022-11-16T23:50:36.369Z,98244.09
2022-11-16T23:53:06.423Z,98245.06
2022-11-16T23:55:35.331Z,98250.13
2022-11-16T23:58:03.761Z,98242.31
